sensor_id;sensor_type;location;lat;lon;timestamp;P1;durP1;ratioP1;P2;durP2;ratioP2
5823;SDS011;2938;52.254;12.988;2023-04-29T00:01:37;17.33;;;12.63;;
5823;SDS011;2938;52.254;12.988;2023-04-29T00:04:03;20.52;;;13.18;;
5823;SDS011;2938;52.254;12.988;2023-04-29T00:06:28;16.90;;;12.57;;
5823;SDS011;2938;52.254;12.988;2023-04-29T00:08:59;10.93;;;9.18;;
5823;SDS011;2938;52.254;12.988;2023-04-29T00:11:25;19.40;;;11.63;;
5823;SDS011;2938;52.254;12.988;2023-04-29T00:13:50;16.67;;;12.27;;
5823;SDS011;2938;52.254;12.988;2023-04-29T00:16:18;13.60;;;12.07;;
5823;SDS011;2938;52.254;12.988;2023-04-29T00:18:52;17.27;;;12.40;;
5823;SDS011;2938;52.254;12.988;2023-04-29T00:21:17;17.73;;;11.75;;
5823;SDS011;2938;52.254;12.988;2023-04-29T00:23:45;16.45;;;12.30;;
5823;SDS011;2938;52.254;12.988;2023-04-29T00:26:10;23.25;;;12.55;;
5823;SDS011;2938;52.254;12.988;2023-04-29T00:28:36;19.58;;;12.15;;
5823;SDS011;2938;52.254;12.988;2023-04-29T00:31:07;15.88;;;12.55;;
5823;SDS011;2938;52.254;12.988;2023-04-29T00:33:33;19.10;;;15.07;;
5823;SDS011;2938;52.254;12.988;2023-04-29T00:35:58;20.70;;;14.15;;
5823;SDS011;2938;52.254;12.988;2023-04-29T00:38:23;17.83;;;12.98;;
5823;SDS011;2938;52.254;12.988;2023-04-29T00:40:49;21.23;;;14.38;;
5823;SDS011;2938;52.254;12.988;2023-04-29T00:43:18;19.55;;;13.23;;
5823;SDS011;2938;52.254;12.988;2023-04-29T00:45:44;17.25;;;14.25;;
5823;SDS011;2938;52.254;12.988;2023-04-29T00:48:10;21.20;;;14.30;;
5823;SDS011;2938;52.254;12.988;2023-04-29T00:50:36;18.17;;;13.98;;
5823;SDS011;2938;52.254;12.988;2023-04-29T00:53:11;20.75;;;14.57;;
5823;SDS011;2938;52.254;12.988;2023-04-29T00:55:39;20.15;;;15.23;;
5823;SDS011;2938;52.254;12.988;2023-04-29T00:58:15;20.60;;;15.70;;
5823;SDS011;2938;52.254;12.988;2023-04-29T01:00:44;18.15;;;15.43;;
5823;SDS011;2938;52.254;12.988;2023-04-29T01:03:12;19.75;;;15.73;;
5823;SDS011;2938;52.254;12.988;2023-04-29T01:05:44;19.60;;;16.80;;
5823;SDS011;2938;52.254;12.988;2023-04-29T01:08:13;20.80;;;16.48;;
5823;SDS011;2938;52.254;12.988;2023-04-29T01:11:07;19.98;;;15.13;;
5823;SDS011;2938;52.254;12.988;2023-04-29T01:14:19;17.63;;;14.77;;
5823;SDS011;2938;52.254;12.988;2023-04-29T01:22:15;20.02;;;16.83;;
5823;SDS011;2938;52.254;12.988;2023-04-29T01:24:48;19.17;;;17.13;;
5823;SDS011;2938;52.254;12.988;2023-04-29T01:27:27;18.85;;;15.80;;
5823;SDS011;2938;52.254;12.988;2023-04-29T01:42:03;25.08;;;17.75;;
5823;SDS011;2938;52.254;12.988;2023-04-29T01:44:54;20.83;;;16.25;;
5823;SDS011;2938;52.254;12.988;2023-04-29T01:47:25;23.52;;;17.25;;
5823;SDS011;2938;52.254;12.988;2023-04-29T01:49:51;20.55;;;16.00;;
5823;SDS011;2938;52.254;12.988;2023-04-29T01:52:16;23.58;;;16.92;;
5823;SDS011;2938;52.254;12.988;2023-04-29T01:54:42;17.23;;;15.38;;
5823;SDS011;2938;52.254;12.988;2023-04-29T01:57:07;19.55;;;17.58;;
5823;SDS011;2938;52.254;12.988;2023-04-29T01:59:34;18.48;;;16.40;;
5823;SDS011;2938;52.254;12.988;2023-04-29T02:02:12;22.63;;;17.40;;
5823;SDS011;2938;52.254;12.988;2023-04-29T02:07:31;19.55;;;17.38;;
5823;SDS011;2938;52.254;12.988;2023-04-29T02:09:59;20.75;;;16.58;;
5823;SDS011;2938;52.254;12.988;2023-04-29T02:12:27;23.75;;;18.20;;
5823;SDS011;2938;52.254;12.988;2023-04-29T02:14:53;19.40;;;17.40;;
5823;SDS011;2938;52.254;12.988;2023-04-29T02:17:23;21.45;;;16.23;;
5823;SDS011;2938;52.254;12.988;2023-04-29T02:19:49;21.75;;;17.33;;
5823;SDS011;2938;52.254;12.988;2023-04-29T02:22:20;20.50;;;17.98;;
5823;SDS011;2938;52.254;12.988;2023-04-29T02:24:49;22.73;;;17.88;;
5823;SDS011;2938;52.254;12.988;2023-04-29T02:27:14;23.55;;;17.88;;
5823;SDS011;2938;52.254;12.988;2023-04-29T02:29:42;23.40;;;18.52;;
5823;SDS011;2938;52.254;12.988;2023-04-29T02:32:07;25.45;;;19.83;;
5823;SDS011;2938;52.254;12.988;2023-04-29T02:34:32;22.30;;;17.92;;
5823;SDS011;2938;52.254;12.988;2023-04-29T02:36:58;19.25;;;17.10;;
5823;SDS011;2938;52.254;12.988;2023-04-29T02:39:24;24.35;;;18.30;;
5823;SDS011;2938;52.254;12.988;2023-04-29T02:41:54;21.33;;;16.95;;
5823;SDS011;2938;52.254;12.988;2023-04-29T02:47:23;24.42;;;18.83;;
5823;SDS011;2938;52.254;12.988;2023-04-29T02:49:49;24.58;;;20.58;;
5823;SDS011;2938;52.254;12.988;2023-04-29T02:52:14;25.90;;;20.20;;
5823;SDS011;2938;52.254;12.988;2023-04-29T02:54:44;27.25;;;19.73;;
5823;SDS011;2938;52.254;12.988;2023-04-29T02:57:15;29.95;;;21.50;;
5823;SDS011;2938;52.254;12.988;2023-04-29T02:59:40;27.08;;;21.65;;
5823;SDS011;2938;52.254;12.988;2023-04-29T03:02:06;33.88;;;22.58;;
5823;SDS011;2938;52.254;12.988;2023-04-29T03:04:40;29.95;;;22.75;;
5823;SDS011;2938;52.254;12.988;2023-04-29T03:07:06;27.10;;;22.63;;
5823;SDS011;2938;52.254;12.988;2023-04-29T03:09:35;28.35;;;23.88;;
5823;SDS011;2938;52.254;12.988;2023-04-29T03:12:06;30.77;;;23.77;;
5823;SDS011;2938;52.254;12.988;2023-04-29T03:14:31;29.05;;;24.67;;
5823;SDS011;2938;52.254;12.988;2023-04-29T03:16:57;30.85;;;22.50;;
5823;SDS011;2938;52.254;12.988;2023-04-29T03:19:22;32.63;;;25.48;;
5823;SDS011;2938;52.254;12.988;2023-04-29T03:21:47;31.80;;;25.17;;
5823;SDS011;2938;52.254;12.988;2023-04-29T03:24:14;30.90;;;25.65;;
5823;SDS011;2938;52.254;12.988;2023-04-29T03:26:39;38.40;;;25.33;;
5823;SDS011;2938;52.254;12.988;2023-04-29T03:29:08;37.67;;;25.73;;
5823;SDS011;2938;52.254;12.988;2023-04-29T03:31:33;32.13;;;24.35;;
5823;SDS011;2938;52.254;12.988;2023-04-29T03:33:59;33.17;;;25.45;;
5823;SDS011;2938;52.254;12.988;2023-04-29T03:36:34;32.72;;;24.83;;
5823;SDS011;2938;52.254;12.988;2023-04-29T03:38:59;35.72;;;25.77;;
5823;SDS011;2938;52.254;12.988;2023-04-29T03:41:31;33.17;;;26.52;;
5823;SDS011;2938;52.254;12.988;2023-04-29T03:43:56;31.30;;;25.73;;
5823;SDS011;2938;52.254;12.988;2023-04-29T03:46:25;31.95;;;25.17;;
5823;SDS011;2938;52.254;12.988;2023-04-29T03:48:52;34.13;;;26.98;;
5823;SDS011;2938;52.254;12.988;2023-04-29T03:51:20;37.35;;;27.67;;
5823;SDS011;2938;52.254;12.988;2023-04-29T03:53:58;36.10;;;27.63;;
5823;SDS011;2938;52.254;12.988;2023-04-29T03:56:23;35.92;;;27.08;;
5823;SDS011;2938;52.254;12.988;2023-04-29T03:58:54;30.92;;;24.83;;
5823;SDS011;2938;52.254;12.988;2023-04-29T04:01:29;38.88;;;27.23;;
5823;SDS011;2938;52.254;12.988;2023-04-29T04:03:54;37.20;;;27.77;;
5823;SDS011;2938;52.254;12.988;2023-04-29T04:06:20;37.33;;;29.13;;
5823;SDS011;2938;52.254;12.988;2023-04-29T04:08:45;40.70;;;28.45;;
5823;SDS011;2938;52.254;12.988;2023-04-29T04:11:11;34.90;;;28.48;;
5823;SDS011;2938;52.254;12.988;2023-04-29T04:13:54;33.58;;;26.83;;
5823;SDS011;2938;52.254;12.988;2023-04-29T04:16:36;40.28;;;29.13;;
5823;SDS011;2938;52.254;12.988;2023-04-29T04:19:19;33.92;;;26.83;;
5823;SDS011;2938;52.254;12.988;2023-04-29T04:21:44;39.40;;;28.30;;
5823;SDS011;2938;52.254;12.988;2023-04-29T04:24:10;37.00;;;28.08;;
5823;SDS011;2938;52.254;12.988;2023-04-29T04:26:41;39.63;;;30.75;;
5823;SDS011;2938;52.254;12.988;2023-04-29T04:29:16;36.97;;;28.33;;
5823;SDS011;2938;52.254;12.988;2023-04-29T04:31:49;41.70;;;29.58;;
5823;SDS011;2938;52.254;12.988;2023-04-29T04:34:14;36.72;;;28.38;;
5823;SDS011;2938;52.254;12.988;2023-04-29T04:36:43;42.95;;;31.00;;
5823;SDS011;2938;52.254;12.988;2023-04-29T04:39:09;41.33;;;31.25;;
5823;SDS011;2938;52.254;12.988;2023-04-29T04:41:38;44.35;;;29.58;;
5823;SDS011;2938;52.254;12.988;2023-04-29T04:44:03;37.67;;;28.73;;
5823;SDS011;2938;52.254;12.988;2023-04-29T04:46:32;42.10;;;32.97;;
5823;SDS011;2938;52.254;12.988;2023-04-29T04:48:59;38.90;;;31.55;;
5823;SDS011;2938;52.254;12.988;2023-04-29T04:51:24;43.10;;;31.23;;
5823;SDS011;2938;52.254;12.988;2023-04-29T04:53:59;40.13;;;32.50;;
5823;SDS011;2938;52.254;12.988;2023-04-29T04:56:43;42.60;;;30.63;;
5823;SDS011;2938;52.254;12.988;2023-04-29T04:59:09;47.28;;;32.22;;
5823;SDS011;2938;52.254;12.988;2023-04-29T05:01:34;42.72;;;31.95;;
5823;SDS011;2938;52.254;12.988;2023-04-29T05:04:00;45.90;;;31.88;;
5823;SDS011;2938;52.254;12.988;2023-04-29T05:06:58;41.13;;;31.13;;
5823;SDS011;2938;52.254;12.988;2023-04-29T05:09:51;42.78;;;32.00;;
5823;SDS011;2938;52.254;12.988;2023-04-29T05:12:16;40.92;;;31.63;;
5823;SDS011;2938;52.254;12.988;2023-04-29T05:14:51;42.75;;;33.50;;
5823;SDS011;2938;52.254;12.988;2023-04-29T05:17:19;41.75;;;32.30;;
5823;SDS011;2938;52.254;12.988;2023-04-29T05:19:47;45.45;;;33.72;;
5823;SDS011;2938;52.254;12.988;2023-04-29T05:22:12;41.97;;;31.45;;
5823;SDS011;2938;52.254;12.988;2023-04-29T05:24:40;42.42;;;29.52;;
5823;SDS011;2938;52.254;12.988;2023-04-29T05:27:08;44.53;;;32.50;;
5823;SDS011;2938;52.254;12.988;2023-04-29T05:29:52;43.20;;;31.95;;
5823;SDS011;2938;52.254;12.988;2023-04-29T05:32:34;48.00;;;34.10;;
5823;SDS011;2938;52.254;12.988;2023-04-29T05:34:59;44.03;;;31.90;;
5823;SDS011;2938;52.254;12.988;2023-04-29T05:37:36;42.78;;;31.45;;
5823;SDS011;2938;52.254;12.988;2023-04-29T05:40:02;42.00;;;30.17;;
5823;SDS011;2938;52.254;12.988;2023-04-29T05:42:36;43.85;;;31.13;;
5823;SDS011;2938;52.254;12.988;2023-04-29T05:48:11;38.65;;;26.10;;
5823;SDS011;2938;52.254;12.988;2023-04-29T05:50:37;44.70;;;27.55;;
5823;SDS011;2938;52.254;12.988;2023-04-29T05:53:04;47.40;;;29.23;;
5823;SDS011;2938;52.254;12.988;2023-04-29T05:55:43;41.20;;;29.15;;
5823;SDS011;2938;52.254;12.988;2023-04-29T05:58:18;42.05;;;28.55;;
5823;SDS011;2938;52.254;12.988;2023-04-29T06:01:07;38.00;;;26.67;;
5823;SDS011;2938;52.254;12.988;2023-04-29T06:03:33;44.83;;;29.20;;
5823;SDS011;2938;52.254;12.988;2023-04-29T06:06:06;39.03;;;27.92;;
5823;SDS011;2938;52.254;12.988;2023-04-29T06:08:32;40.80;;;27.13;;
5823;SDS011;2938;52.254;12.988;2023-04-29T06:11:06;39.88;;;25.90;;
5823;SDS011;2938;52.254;12.988;2023-04-29T06:13:51;41.38;;;26.98;;
5823;SDS011;2938;52.254;12.988;2023-04-29T06:16:17;39.45;;;25.42;;
5823;SDS011;2938;52.254;12.988;2023-04-29T06:18:42;41.28;;;26.75;;
5823;SDS011;2938;52.254;12.988;2023-04-29T06:21:07;45.42;;;29.30;;
5823;SDS011;2938;52.254;12.988;2023-04-29T06:23:41;44.75;;;28.52;;
5823;SDS011;2938;52.254;12.988;2023-04-29T06:26:31;43.65;;;26.83;;
5823;SDS011;2938;52.254;12.988;2023-04-29T06:29:05;44.53;;;26.90;;
5823;SDS011;2938;52.254;12.988;2023-04-29T06:31:33;44.35;;;26.67;;
5823;SDS011;2938;52.254;12.988;2023-04-29T06:34:05;41.75;;;27.52;;
5823;SDS011;2938;52.254;12.988;2023-04-29T06:42:35;36.50;;;24.85;;
5823;SDS011;2938;52.254;12.988;2023-04-29T06:45:03;38.30;;;26.45;;
5823;SDS011;2938;52.254;12.988;2023-04-29T06:47:29;41.45;;;26.88;;
5823;SDS011;2938;52.254;12.988;2023-04-29T06:49:57;38.30;;;24.40;;
5823;SDS011;2938;52.254;12.988;2023-04-29T06:52:29;38.72;;;27.67;;
5823;SDS011;2938;52.254;12.988;2023-04-29T06:55:17;40.10;;;25.75;;
5823;SDS011;2938;52.254;12.988;2023-04-29T06:57:50;44.78;;;28.85;;
5823;SDS011;2938;52.254;12.988;2023-04-29T07:00:20;42.55;;;27.63;;
5823;SDS011;2938;52.254;12.988;2023-04-29T07:02:53;37.92;;;25.15;;
5823;SDS011;2938;52.254;12.988;2023-04-29T07:05:29;36.15;;;26.92;;
5823;SDS011;2938;52.254;12.988;2023-04-29T07:08:04;45.25;;;28.58;;
5823;SDS011;2938;52.254;12.988;2023-04-29T07:10:29;39.95;;;24.45;;
5823;SDS011;2938;52.254;12.988;2023-04-29T07:12:55;42.22;;;26.25;;
5823;SDS011;2938;52.254;12.988;2023-04-29T07:15:20;42.63;;;27.10;;
5823;SDS011;2938;52.254;12.988;2023-04-29T07:17:46;37.42;;;23.65;;
5823;SDS011;2938;52.254;12.988;2023-04-29T07:20:11;35.17;;;26.58;;
5823;SDS011;2938;52.254;12.988;2023-04-29T07:22:39;40.13;;;23.83;;
5823;SDS011;2938;52.254;12.988;2023-04-29T07:25:08;39.58;;;25.77;;
5823;SDS011;2938;52.254;12.988;2023-04-29T07:27:48;41.45;;;26.38;;
5823;SDS011;2938;52.254;12.988;2023-04-29T07:30:13;43.05;;;24.63;;
5823;SDS011;2938;52.254;12.988;2023-04-29T07:32:39;45.20;;;23.45;;
5823;SDS011;2938;52.254;12.988;2023-04-29T07:35:14;35.13;;;22.65;;
5823;SDS011;2938;52.254;12.988;2023-04-29T07:37:54;32.83;;;21.90;;
5823;SDS011;2938;52.254;12.988;2023-04-29T07:40:23;36.83;;;20.75;;
5823;SDS011;2938;52.254;12.988;2023-04-29T07:43:12;41.55;;;24.23;;
5823;SDS011;2938;52.254;12.988;2023-04-29T07:45:47;34.95;;;22.40;;
5823;SDS011;2938;52.254;12.988;2023-04-29T07:48:16;33.50;;;20.92;;
5823;SDS011;2938;52.254;12.988;2023-04-29T07:50:49;33.95;;;22.00;;
5823;SDS011;2938;52.254;12.988;2023-04-29T07:53:44;40.30;;;25.50;;
5823;SDS011;2938;52.254;12.988;2023-04-29T07:56:30;34.58;;;23.08;;
5823;SDS011;2938;52.254;12.988;2023-04-29T07:58:55;35.90;;;24.92;;
5823;SDS011;2938;52.254;12.988;2023-04-29T08:01:41;35.28;;;24.25;;
5823;SDS011;2938;52.254;12.988;2023-04-29T08:04:09;38.28;;;24.60;;
5823;SDS011;2938;52.254;12.988;2023-04-29T08:09:28;36.25;;;24.73;;
5823;SDS011;2938;52.254;12.988;2023-04-29T08:11:56;36.88;;;25.35;;
5823;SDS011;2938;52.254;12.988;2023-04-29T08:15:38;37.35;;;25.75;;
5823;SDS011;2938;52.254;12.988;2023-04-29T08:18:24;37.75;;;26.20;;
5823;SDS011;2938;52.254;12.988;2023-04-29T08:20:49;38.90;;;26.50;;
5823;SDS011;2938;52.254;12.988;2023-04-29T08:26:20;40.72;;;27.85;;
5823;SDS011;2938;52.254;12.988;2023-04-29T08:29:06;47.10;;;28.02;;
5823;SDS011;2938;52.254;12.988;2023-04-29T08:31:39;47.92;;;30.30;;
5823;SDS011;2938;52.254;12.988;2023-04-29T08:34:07;48.97;;;29.35;;
5823;SDS011;2938;52.254;12.988;2023-04-29T08:37:18;46.17;;;27.58;;
5823;SDS011;2938;52.254;12.988;2023-04-29T08:39:45;53.00;;;30.02;;
5823;SDS011;2938;52.254;12.988;2023-04-29T08:42:16;49.00;;;28.88;;
5823;SDS011;2938;52.254;12.988;2023-04-29T08:44:55;54.80;;;30.17;;
5823;SDS011;2938;52.254;12.988;2023-04-29T08:47:41;55.80;;;31.50;;
5823;SDS011;2938;52.254;12.988;2023-04-29T08:50:21;56.78;;;33.70;;
5823;SDS011;2938;52.254;12.988;2023-04-29T08:52:48;54.83;;;31.83;;
5823;SDS011;2938;52.254;12.988;2023-04-29T08:55:14;53.08;;;29.65;;
5823;SDS011;2938;52.254;12.988;2023-04-29T08:57:55;57.83;;;32.85;;
5823;SDS011;2938;52.254;12.988;2023-04-29T09:06:31;64.18;;;33.45;;
5823;SDS011;2938;52.254;12.988;2023-04-29T09:09:06;59.30;;;32.13;;
5823;SDS011;2938;52.254;12.988;2023-04-29T09:12:28;62.55;;;32.95;;
5823;SDS011;2938;52.254;12.988;2023-04-29T09:15:14;65.47;;;33.72;;
5823;SDS011;2938;52.254;12.988;2023-04-29T09:23:04;69.15;;;35.22;;
5823;SDS011;2938;52.254;12.988;2023-04-29T09:31:53;63.45;;;33.50;;
5823;SDS011;2938;52.254;12.988;2023-04-29T09:34:31;65.40;;;36.92;;
5823;SDS011;2938;52.254;12.988;2023-04-29T09:37:22;62.53;;;35.83;;
5823;SDS011;2938;52.254;12.988;2023-04-29T09:39:50;74.07;;;37.22;;
5823;SDS011;2938;52.254;12.988;2023-04-29T09:45:11;60.67;;;33.63;;
5823;SDS011;2938;52.254;12.988;2023-04-29T09:48:04;61.92;;;34.58;;
5823;SDS011;2938;52.254;12.988;2023-04-29T09:50:31;68.28;;;34.15;;
5823;SDS011;2938;52.254;12.988;2023-04-29T09:53:09;62.83;;;34.35;;
5823;SDS011;2938;52.254;12.988;2023-04-29T09:58:36;69.85;;;34.78;;
5823;SDS011;2938;52.254;12.988;2023-04-29T10:01:06;56.58;;;34.17;;
5823;SDS011;2938;52.254;12.988;2023-04-29T10:03:33;62.40;;;34.85;;
5823;SDS011;2938;52.254;12.988;2023-04-29T10:06:03;50.72;;;32.28;;
5823;SDS011;2938;52.254;12.988;2023-04-29T10:08:29;54.50;;;32.75;;
5823;SDS011;2938;52.254;12.988;2023-04-29T10:11:04;53.97;;;30.70;;
5823;SDS011;2938;52.254;12.988;2023-04-29T10:13:30;47.75;;;28.48;;
5823;SDS011;2938;52.254;12.988;2023-04-29T10:18:53;45.67;;;29.57;;
5823;SDS011;2938;52.254;12.988;2023-04-29T10:21:41;46.92;;;28.92;;
5823;SDS011;2938;52.254;12.988;2023-04-29T10:24:05;51.50;;;28.70;;
5823;SDS011;2938;52.254;12.988;2023-04-29T10:26:35;50.80;;;28.60;;
5823;SDS011;2938;52.254;12.988;2023-04-29T10:29:05;49.22;;;30.90;;
5823;SDS011;2938;52.254;12.988;2023-04-29T10:31:43;41.25;;;27.52;;
5823;SDS011;2938;52.254;12.988;2023-04-29T10:34:13;46.85;;;28.35;;
5823;SDS011;2938;52.254;12.988;2023-04-29T10:36:47;44.10;;;28.65;;
5823;SDS011;2938;52.254;12.988;2023-04-29T10:39:15;42.45;;;28.08;;
5823;SDS011;2938;52.254;12.988;2023-04-29T10:41:46;46.22;;;29.15;;
5823;SDS011;2938;52.254;12.988;2023-04-29T10:44:14;40.17;;;24.85;;
5823;SDS011;2938;52.254;12.988;2023-04-29T10:47:17;46.53;;;29.27;;
5823;SDS011;2938;52.254;12.988;2023-04-29T10:52:26;56.00;;;32.67;;
5823;SDS011;2938;52.254;12.988;2023-04-29T10:55:00;60.97;;;37.03;;
5823;SDS011;2938;52.254;12.988;2023-04-29T10:57:41;62.70;;;34.92;;
5823;SDS011;2938;52.254;12.988;2023-04-29T11:00:06;63.17;;;37.17;;
5823;SDS011;2938;52.254;12.988;2023-04-29T11:02:49;55.95;;;34.80;;
5823;SDS011;2938;52.254;12.988;2023-04-29T11:05:14;54.30;;;34.60;;
5823;SDS011;2938;52.254;12.988;2023-04-29T11:07:51;58.38;;;37.60;;
5823;SDS011;2938;52.254;12.988;2023-04-29T11:10:52;59.75;;;35.00;;
5823;SDS011;2938;52.254;12.988;2023-04-29T11:13:29;64.53;;;36.97;;
5823;SDS011;2938;52.254;12.988;2023-04-29T11:16:09;61.70;;;36.53;;
5823;SDS011;2938;52.254;12.988;2023-04-29T11:21:29;59.83;;;33.80;;
5823;SDS011;2938;52.254;12.988;2023-04-29T11:23:59;51.58;;;34.70;;
5823;SDS011;2938;52.254;12.988;2023-04-29T11:26:36;51.67;;;35.30;;
5823;SDS011;2938;52.254;12.988;2023-04-29T11:29:49;56.38;;;34.60;;
5823;SDS011;2938;52.254;12.988;2023-04-29T11:32:26;45.13;;;28.75;;
5823;SDS011;2938;52.254;12.988;2023-04-29T11:34:52;54.28;;;33.25;;
5823;SDS011;2938;52.254;12.988;2023-04-29T11:37:29;38.30;;;28.95;;
5823;SDS011;2938;52.254;12.988;2023-04-29T11:39:58;38.33;;;27.25;;
5823;SDS011;2938;52.254;12.988;2023-04-29T11:42:24;36.95;;;28.35;;
5823;SDS011;2938;52.254;12.988;2023-04-29T11:44:50;43.42;;;27.33;;
5823;SDS011;2938;52.254;12.988;2023-04-29T11:47:17;37.65;;;27.33;;
5823;SDS011;2938;52.254;12.988;2023-04-29T11:49:42;29.05;;;23.58;;
5823;SDS011;2938;52.254;12.988;2023-04-29T11:52:28;35.85;;;26.02;;
5823;SDS011;2938;52.254;12.988;2023-04-29T11:54:54;34.08;;;24.58;;
5823;SDS011;2938;52.254;12.988;2023-04-29T11:57:22;35.65;;;24.80;;
5823;SDS011;2938;52.254;12.988;2023-04-29T11:59:47;27.65;;;23.92;;
5823;SDS011;2938;52.254;12.988;2023-04-29T12:02:12;31.60;;;25.60;;
5823;SDS011;2938;52.254;12.988;2023-04-29T12:04:44;27.83;;;23.58;;
5823;SDS011;2938;52.254;12.988;2023-04-29T12:07:14;27.65;;;20.80;;
5823;SDS011;2938;52.254;12.988;2023-04-29T12:09:41;28.88;;;22.55;;
5823;SDS011;2938;52.254;12.988;2023-04-29T12:12:10;28.15;;;21.88;;
5823;SDS011;2938;52.254;12.988;2023-04-29T12:14:36;32.83;;;22.77;;
5823;SDS011;2938;52.254;12.988;2023-04-29T12:17:06;30.23;;;23.38;;
5823;SDS011;2938;52.254;12.988;2023-04-29T12:19:32;32.08;;;22.63;;
5823;SDS011;2938;52.254;12.988;2023-04-29T12:22:04;33.15;;;23.17;;
5823;SDS011;2938;52.254;12.988;2023-04-29T12:24:41;33.90;;;23.77;;
5823;SDS011;2938;52.254;12.988;2023-04-29T12:27:07;29.95;;;21.67;;
5823;SDS011;2938;52.254;12.988;2023-04-29T12:29:35;39.45;;;21.25;;
5823;SDS011;2938;52.254;12.988;2023-04-29T12:32:01;25.48;;;21.10;;
5823;SDS011;2938;52.254;12.988;2023-04-29T12:34:32;22.20;;;19.00;;
5823;SDS011;2938;52.254;12.988;2023-04-29T12:36:58;26.40;;;19.20;;
5823;SDS011;2938;52.254;12.988;2023-04-29T12:39:27;36.13;;;21.15;;
5823;SDS011;2938;52.254;12.988;2023-04-29T12:42:04;25.45;;;20.05;;
5823;SDS011;2938;52.254;12.988;2023-04-29T12:44:36;29.10;;;18.75;;
5823;SDS011;2938;52.254;12.988;2023-04-29T12:47:08;28.60;;;20.55;;
5823;SDS011;2938;52.254;12.988;2023-04-29T12:49:34;26.67;;;17.83;;
5823;SDS011;2938;52.254;12.988;2023-04-29T12:52:04;22.77;;;17.75;;
5823;SDS011;2938;52.254;12.988;2023-04-29T12:54:33;26.15;;;17.95;;
5823;SDS011;2938;52.254;12.988;2023-04-29T12:57:06;29.85;;;15.02;;
5823;SDS011;2938;52.254;12.988;2023-04-29T12:59:32;19.92;;;15.32;;
5823;SDS011;2938;52.254;12.988;2023-04-29T13:01:57;19.17;;;13.65;;
5823;SDS011;2938;52.254;12.988;2023-04-29T13:04:22;17.02;;;12.98;;
5823;SDS011;2938;52.254;12.988;2023-04-29T13:06:48;15.98;;;11.80;;
5823;SDS011;2938;52.254;12.988;2023-04-29T13:09:18;20.08;;;13.40;;
5823;SDS011;2938;52.254;12.988;2023-04-29T13:11:49;12.68;;;11.07;;
5823;SDS011;2938;52.254;12.988;2023-04-29T13:14:16;12.32;;;10.98;;
5823;SDS011;2938;52.254;12.988;2023-04-29T13:16:45;15.88;;;10.98;;
5823;SDS011;2938;52.254;12.988;2023-04-29T13:19:13;12.65;;;9.38;;
5823;SDS011;2938;52.254;12.988;2023-04-29T13:21:47;10.70;;;9.57;;
5823;SDS011;2938;52.254;12.988;2023-04-29T13:24:20;9.75;;;8.38;;
5823;SDS011;2938;52.254;12.988;2023-04-29T13:27:02;12.63;;;10.15;;
5823;SDS011;2938;52.254;12.988;2023-04-29T13:29:30;12.18;;;10.13;;
5823;SDS011;2938;52.254;12.988;2023-04-29T13:31:55;11.02;;;9.45;;
5823;SDS011;2938;52.254;12.988;2023-04-29T13:34:21;13.70;;;9.00;;
5823;SDS011;2938;52.254;12.988;2023-04-29T13:36:46;14.43;;;9.98;;
5823;SDS011;2938;52.254;12.988;2023-04-29T13:39:14;10.70;;;8.65;;
5823;SDS011;2938;52.254;12.988;2023-04-29T13:41:47;13.88;;;11.13;;
5823;SDS011;2938;52.254;12.988;2023-04-29T13:44:32;14.77;;;10.43;;
5823;SDS011;2938;52.254;12.988;2023-04-29T13:46:59;15.55;;;10.52;;
5823;SDS011;2938;52.254;12.988;2023-04-29T13:49:25;11.73;;;10.13;;
5823;SDS011;2938;52.254;12.988;2023-04-29T13:51:58;12.05;;;9.95;;
5823;SDS011;2938;52.254;12.988;2023-04-29T13:54:24;15.18;;;11.35;;
5823;SDS011;2938;52.254;12.988;2023-04-29T13:56:53;15.35;;;10.60;;
5823;SDS011;2938;52.254;12.988;2023-04-29T13:59:18;16.83;;;12.00;;
5823;SDS011;2938;52.254;12.988;2023-04-29T14:02:01;13.77;;;10.38;;
5823;SDS011;2938;52.254;12.988;2023-04-29T14:04:27;15.55;;;11.43;;
5823;SDS011;2938;52.254;12.988;2023-04-29T14:06:53;16.05;;;11.77;;
5823;SDS011;2938;52.254;12.988;2023-04-29T14:09:19;19.25;;;11.57;;
5823;SDS011;2938;52.254;12.988;2023-04-29T14:11:48;16.42;;;11.45;;
5823;SDS011;2938;52.254;12.988;2023-04-29T14:14:14;17.88;;;10.40;;
5823;SDS011;2938;52.254;12.988;2023-04-29T14:16:48;15.98;;;12.02;;
5823;SDS011;2938;52.254;12.988;2023-04-29T14:19:16;22.65;;;11.70;;
5823;SDS011;2938;52.254;12.988;2023-04-29T14:21:41;23.52;;;13.13;;
5823;SDS011;2938;52.254;12.988;2023-04-29T14:24:06;21.05;;;12.93;;
5823;SDS011;2938;52.254;12.988;2023-04-29T14:26:32;16.65;;;11.80;;
5823;SDS011;2938;52.254;12.988;2023-04-29T14:28:58;17.48;;;12.40;;
5823;SDS011;2938;52.254;12.988;2023-04-29T14:31:29;18.88;;;12.18;;
5823;SDS011;2938;52.254;12.988;2023-04-29T14:33:55;15.30;;;12.63;;
5823;SDS011;2938;52.254;12.988;2023-04-29T14:36:21;16.88;;;12.32;;
5823;SDS011;2938;52.254;12.988;2023-04-29T14:38:46;14.98;;;12.00;;
5823;SDS011;2938;52.254;12.988;2023-04-29T14:41:12;11.77;;;10.32;;
5823;SDS011;2938;52.254;12.988;2023-04-29T14:43:37;15.43;;;9.65;;
5823;SDS011;2938;52.254;12.988;2023-04-29T14:46:03;14.65;;;10.27;;
5823;SDS011;2938;52.254;12.988;2023-04-29T14:48:29;14.30;;;9.35;;
5823;SDS011;2938;52.254;12.988;2023-04-29T14:50:54;10.75;;;7.90;;
5823;SDS011;2938;52.254;12.988;2023-04-29T14:53:19;13.27;;;9.13;;
5823;SDS011;2938;52.254;12.988;2023-04-29T14:55:46;9.60;;;7.78;;
5823;SDS011;2938;52.254;12.988;2023-04-29T14:58:11;11.00;;;7.50;;
5823;SDS011;2938;52.254;12.988;2023-04-29T15:00:39;12.52;;;7.78;;
5823;SDS011;2938;52.254;12.988;2023-04-29T15:03:05;9.38;;;7.85;;
5823;SDS011;2938;52.254;12.988;2023-04-29T15:05:30;8.85;;;7.93;;
5823;SDS011;2938;52.254;12.988;2023-04-29T15:07:58;19.65;;;8.88;;
5823;SDS011;2938;52.254;12.988;2023-04-29T15:10:25;13.35;;;8.57;;
5823;SDS011;2938;52.254;12.988;2023-04-29T15:12:54;9.25;;;7.25;;
5823;SDS011;2938;52.254;12.988;2023-04-29T15:15:20;11.63;;;7.43;;
5823;SDS011;2938;52.254;12.988;2023-04-29T15:17:46;11.15;;;7.53;;
5823;SDS011;2938;52.254;12.988;2023-04-29T15:20:11;11.27;;;7.07;;
5823;SDS011;2938;52.254;12.988;2023-04-29T15:22:37;14.13;;;8.15;;
5823;SDS011;2938;52.254;12.988;2023-04-29T15:25:02;12.95;;;8.10;;
5823;SDS011;2938;52.254;12.988;2023-04-29T15:27:28;11.50;;;8.02;;
5823;SDS011;2938;52.254;12.988;2023-04-29T15:29:57;10.57;;;8.38;;
5823;SDS011;2938;52.254;12.988;2023-04-29T15:32:22;11.57;;;8.18;;
5823;SDS011;2938;52.254;12.988;2023-04-29T15:34:55;8.80;;;7.90;;
5823;SDS011;2938;52.254;12.988;2023-04-29T15:37:21;8.25;;;6.72;;
5823;SDS011;2938;52.254;12.988;2023-04-29T15:39:46;9.73;;;8.48;;
5823;SDS011;2938;52.254;12.988;2023-04-29T15:42:12;17.50;;;8.40;;
5823;SDS011;2938;52.254;12.988;2023-04-29T15:44:37;12.40;;;7.90;;
5823;SDS011;2938;52.254;12.988;2023-04-29T15:47:02;12.65;;;7.90;;
5823;SDS011;2938;52.254;12.988;2023-04-29T15:49:28;13.18;;;8.02;;
5823;SDS011;2938;52.254;12.988;2023-04-29T15:51:57;15.55;;;8.93;;
5823;SDS011;2938;52.254;12.988;2023-04-29T15:54:23;17.42;;;7.43;;
5823;SDS011;2938;52.254;12.988;2023-04-29T15:56:48;8.88;;;7.43;;
5823;SDS011;2938;52.254;12.988;2023-04-29T15:59:23;11.65;;;8.52;;
5823;SDS011;2938;52.254;12.988;2023-04-29T16:01:49;11.85;;;8.75;;
5823;SDS011;2938;52.254;12.988;2023-04-29T16:04:14;10.60;;;7.10;;
5823;SDS011;2938;52.254;12.988;2023-04-29T16:06:40;11.95;;;8.95;;
5823;SDS011;2938;52.254;12.988;2023-04-29T16:09:08;11.85;;;9.32;;